Eureka, Missouri
Current Conditions -  °F | °C
As of 2:54 PM on Thursday 23 Oct 2014 (Local Time) from KSUS Reporting Station
Broken Clouds Broken Clouds  
Wind Chill: 64°   Ceiling: 15000
Heat Index: 64°   Visibility: 10mi
Dew Point: 45°   Wind: 8mph
Humidity: 50%   Direction: 190°S
Pressure: 30.1"   Gusts: NA
Location:  38.5°N, 90.63°W
Report Text: KSUS 231954Z 19007KT 10SM BKN150 18/07 A3010 RMK AO2 SLP195 T01780072
Loading
Personal Weather Stations






























Interactive Weather Map
Tropical Storm Tracking
New forecast layout! Learn more

10-Day Weather Forecast

Advertisements
Track Severe Weather on mobile